createdAt,value
2018-12-24T00:01:57.258Z,4.33
2018-12-24T00:04:26.970Z,4.32
2018-12-24T00:06:58.081Z,4.33
2018-12-24T00:09:27.822Z,4.29
2018-12-24T00:11:58.041Z,4.25
2018-12-24T00:14:27.852Z,4.20
2018-12-24T00:16:57.627Z,4.16
2018-12-24T00:19:27.434Z,4.22
2018-12-24T00:22:00.024Z,4.19
2018-12-24T00:24:29.796Z,4.20
2018-12-24T00:27:02.645Z,4.13
2018-12-24T00:29:32.447Z,4.07
2018-12-24T00:32:02.169Z,3.93
2018-12-24T00:34:31.983Z,3.97
2018-12-24T00:37:01.754Z,4.01
2018-12-24T00:39:31.560Z,4.00
2018-12-24T00:42:01.458Z,4.06
2018-12-24T00:44:31.272Z,3.86
2018-12-24T00:47:01.083Z,3.99
2018-12-24T00:49:30.894Z,4.05
2018-12-24T00:52:01.222Z,4.08
2018-12-24T00:54:33.378Z,3.90
2018-12-24T00:57:03.130Z,3.88
2018-12-24T00:59:32.877Z,4.12
2018-12-24T01:02:02.697Z,4.19
2018-12-24T01:04:32.644Z,4.22
2018-12-24T01:07:02.451Z,4.24
2018-12-24T01:09:32.627Z,4.04
2018-12-24T01:12:02.382Z,4.19
2018-12-24T01:14:32.124Z,4.31
2018-12-24T01:17:02.000Z,4.21
2018-12-24T01:19:31.711Z,4.01
2018-12-24T01:22:01.490Z,4.00
2018-12-24T01:24:31.277Z,4.14
2018-12-24T01:27:02.120Z,4.27
2018-12-24T01:29:31.889Z,4.31
2018-12-24T01:32:01.717Z,4.32
2018-12-24T01:34:31.496Z,4.41
2018-12-24T01:37:01.602Z,4.53
2018-12-24T01:39:31.414Z,4.52
2018-12-24T01:42:01.282Z,4.46
2018-12-24T01:44:31.061Z,4.19
2018-12-24T01:47:01.256Z,4.14
2018-12-24T01:49:31.128Z,4.07
2018-12-24T01:52:04.273Z,3.99
2018-12-24T01:54:34.254Z,3.84
2018-12-24T01:57:04.022Z,3.72
2018-12-24T01:59:33.824Z,3.52
2018-12-24T02:02:03.575Z,3.42
2018-12-24T02:04:33.380Z,3.38
2018-12-24T02:07:03.265Z,3.36
2018-12-24T02:09:33.077Z,3.36
2018-12-24T02:12:04.248Z,3.29
2018-12-24T02:14:34.017Z,3.24
2018-12-24T02:17:05.004Z,3.24
2018-12-24T02:19:35.089Z,3.19
2018-12-24T02:22:12.661Z,3.01
2018-12-24T02:24:36.612Z,2.89
2018-12-24T02:27:06.374Z,2.90
2018-12-24T02:29:36.169Z,2.85
2018-12-24T02:32:05.985Z,2.89
2018-12-24T02:34:35.738Z,2.91
2018-12-24T02:37:05.887Z,2.88
2018-12-24T02:39:35.727Z,2.96
2018-12-24T02:42:05.549Z,2.92
2018-12-24T02:44:35.303Z,2.84
2018-12-24T02:47:05.085Z,2.93
2018-12-24T02:49:34.874Z,3.00
2018-12-24T02:52:04.699Z,2.97
2018-12-24T02:54:34.520Z,2.98
2018-12-24T02:57:04.305Z,2.86
2018-12-24T02:59:34.050Z,2.87
2018-12-24T03:02:03.876Z,2.78
2018-12-24T03:04:33.703Z,2.73
2018-12-24T03:07:04.830Z,2.75
2018-12-24T03:09:34.586Z,2.75
2018-12-24T03:12:04.440Z,2.73
2018-12-24T03:14:34.213Z,2.76
2018-12-24T03:17:06.686Z,2.76
2018-12-24T03:19:36.476Z,2.74
2018-12-24T03:22:06.320Z,2.70
2018-12-24T03:24:36.234Z,2.73
2018-12-24T03:27:06.370Z,2.74
2018-12-24T03:29:36.183Z,2.74
2018-12-24T03:32:07.230Z,2.80
2018-12-24T03:34:37.073Z,2.72
2018-12-24T03:37:08.002Z,2.74
2018-12-24T03:39:37.826Z,2.77
2018-12-24T03:42:07.798Z,2.80
2018-12-24T03:44:37.624Z,2.79
2018-12-24T03:47:07.418Z,2.91
2018-12-24T03:49:37.266Z,2.90
2018-12-24T03:52:07.116Z,2.88
2018-12-24T03:54:36.951Z,2.91
2018-12-24T03:57:07.101Z,2.85
2018-12-24T03:59:36.852Z,2.81
2018-12-24T04:02:06.705Z,2.76
2018-12-24T04:04:36.580Z,2.57
2018-12-24T04:07:06.362Z,2.47
2018-12-24T04:09:36.179Z,2.48
2018-12-24T04:12:06.365Z,2.63
2018-12-24T04:14:36.257Z,2.69
2018-12-24T04:17:06.055Z,2.69
2018-12-24T04:19:35.862Z,2.70
2018-12-24T04:22:05.680Z,2.80
2018-12-24T04:24:35.463Z,2.68
2018-12-24T04:27:07.176Z,2.68
2018-12-24T04:29:37.001Z,2.78
2018-12-24T04:32:06.849Z,2.68
2018-12-24T04:34:36.709Z,2.66
2018-12-24T04:37:09.016Z,2.72
2018-12-24T04:39:39.052Z,2.68
2018-12-24T04:42:08.885Z,2.55
2018-12-24T04:44:38.751Z,2.46
2018-12-24T04:47:08.554Z,2.53
2018-12-24T04:49:38.370Z,2.48
2018-12-24T04:52:08.215Z,2.55
2018-12-24T04:54:38.006Z,2.57
2018-12-24T04:57:07.797Z,2.66
2018-12-24T04:59:37.622Z,2.60
2018-12-24T05:02:07.458Z,2.58
2018-12-24T05:04:37.274Z,2.50
2018-12-24T05:07:07.053Z,2.45
2018-12-24T05:09:36.889Z,2.43
2018-12-24T05:12:06.770Z,2.40
2018-12-24T05:14:36.604Z,2.29
2018-12-24T05:17:06.403Z,2.15
2018-12-24T05:19:36.202Z,2.10
2018-12-24T05:22:06.016Z,2.05
2018-12-24T05:24:35.785Z,2.04
2018-12-24T05:27:05.566Z,1.92
2018-12-24T05:29:35.396Z,1.87
2018-12-24T05:32:05.236Z,1.92
2018-12-24T05:34:35.423Z,1.83
2018-12-24T05:37:05.204Z,1.85
2018-12-24T05:39:35.012Z,1.90
2018-12-24T05:42:04.921Z,1.87
2018-12-24T05:44:34.766Z,1.68
2018-12-24T05:47:04.618Z,1.62
2018-12-24T05:49:34.757Z,1.60
2018-12-24T05:52:04.557Z,1.60
2018-12-24T05:54:34.330Z,1.56
2018-12-24T05:57:04.124Z,1.38
2018-12-24T05:59:34.011Z,1.43
2018-12-24T06:02:03.797Z,1.24
2018-12-24T06:04:33.414Z,1.24
2018-12-24T06:07:03.251Z,1.36
2018-12-24T06:09:33.023Z,1.22
2018-12-24T06:12:02.822Z,1.22
2018-12-24T06:14:32.633Z,1.14
2018-12-24T06:17:02.464Z,1.23
2018-12-24T06:19:32.247Z,1.00
2018-12-24T06:22:02.016Z,1.17
2018-12-24T06:24:32.809Z,0.96
2018-12-24T06:27:02.609Z,1.13
2018-12-24T06:29:32.426Z,1.27
2018-12-24T06:32:02.311Z,1.23
2018-12-24T06:34:32.144Z,1.49
2018-12-24T06:37:01.926Z,1.58
2018-12-24T06:39:31.699Z,1.71
2018-12-24T06:42:01.551Z,1.76
2018-12-24T06:44:31.351Z,1.67
2018-12-24T06:47:01.139Z,1.83
2018-12-24T06:49:30.934Z,1.89
2018-12-24T06:52:00.832Z,1.99
2018-12-24T06:54:30.955Z,2.13
2018-12-24T06:57:00.796Z,2.38
2018-12-24T06:59:30.562Z,2.47
2018-12-24T07:02:00.404Z,2.58
2018-12-24T07:04:30.347Z,2.75
2018-12-24T07:07:00.236Z,2.94
2018-12-24T07:09:30.075Z,3.01
2018-12-24T07:11:59.912Z,3.09
2018-12-24T07:14:29.714Z,3.18
2018-12-24T07:16:59.533Z,3.31
2018-12-24T07:19:29.326Z,3.42
2018-12-24T07:21:59.157Z,3.33
2018-12-24T07:24:31.073Z,3.53
2018-12-24T07:27:00.867Z,3.59
2018-12-24T07:29:30.659Z,3.69
2018-12-24T07:32:00.545Z,3.92
2018-12-24T07:34:32.579Z,4.15
2018-12-24T07:37:01.949Z,4.09
2018-12-24T07:39:31.740Z,4.18
2018-12-24T07:42:01.533Z,4.36
2018-12-24T07:44:31.324Z,4.54
2018-12-24T07:47:01.169Z,4.60
2018-12-24T07:49:30.982Z,4.82
2018-12-24T07:52:00.985Z,4.95
2018-12-24T07:54:30.739Z,5.15
2018-12-24T07:57:00.545Z,5.23
2018-12-24T07:59:30.363Z,5.32
2018-12-24T08:02:00.119Z,5.43
2018-12-24T08:04:29.935Z,5.50
2018-12-24T08:06:59.670Z,5.65
2018-12-24T08:09:29.481Z,5.48
2018-12-24T08:11:59.317Z,5.48
2018-12-24T08:14:33.175Z,5.64
2018-12-24T08:17:00.855Z,5.66
2018-12-24T08:19:30.706Z,5.61
2018-12-24T08:22:00.500Z,5.33
2018-12-24T08:24:30.305Z,5.22
2018-12-24T08:27:00.152Z,5.36
2018-12-24T08:29:29.966Z,5.53
2018-12-24T08:31:59.778Z,5.62
2018-12-24T08:34:29.577Z,5.75
2018-12-24T08:36:59.439Z,5.77
2018-12-24T08:39:29.225Z,5.89
2018-12-24T08:41:59.049Z,5.94
2018-12-24T08:44:28.870Z,5.92
2018-12-24T08:47:03.182Z,6.00
2018-12-24T08:49:33.285Z,5.84
2018-12-24T08:52:03.145Z,5.99
2018-12-24T08:54:32.963Z,6.02
2018-12-24T08:57:02.811Z,6.11
2018-12-24T08:59:32.647Z,6.17
2018-12-24T09:02:02.442Z,6.31
2018-12-24T09:04:32.224Z,6.46
2018-12-24T09:07:03.035Z,6.72
2018-12-24T09:09:32.840Z,6.92
2018-12-24T09:12:02.678Z,7.16
2018-12-24T09:14:32.448Z,7.08
2018-12-24T09:17:02.257Z,7.14
2018-12-24T09:19:32.213Z,7.26
2018-12-24T09:22:02.059Z,7.39
2018-12-24T09:24:31.880Z,7.56
2018-12-24T09:27:01.646Z,7.67
2018-12-24T09:29:31.535Z,7.68
2018-12-24T09:32:01.399Z,7.64
2018-12-24T09:34:31.167Z,7.64
2018-12-24T09:37:00.947Z,7.79
2018-12-24T09:39:30.804Z,7.71
2018-12-24T09:42:00.623Z,7.85
2018-12-24T09:44:30.473Z,8.20
2018-12-24T09:47:00.301Z,8.50
2018-12-24T09:49:30.134Z,9.04
2018-12-24T09:52:00.944Z,9.15
2018-12-24T09:54:30.810Z,9.32
2018-12-24T09:57:00.599Z,9.26
2018-12-24T09:59:30.478Z,8.90
2018-12-24T10:02:00.343Z,9.00
2018-12-24T10:04:36.973Z,8.90
2018-12-24T10:07:29.741Z,9.06
2018-12-24T10:09:59.536Z,8.98
2018-12-24T10:12:29.391Z,8.65
2018-12-24T10:15:07.658Z,8.32
2018-12-24T10:18:23.301Z,8.46
2018-12-24T10:20:52.684Z,8.52
2018-12-24T10:23:22.032Z,8.45
2018-12-24T10:25:51.406Z,8.25
2018-12-24T10:28:20.754Z,8.50
2018-12-24T10:30:50.134Z,8.67
2018-12-24T10:33:19.539Z,8.80
2018-12-24T10:35:48.924Z,9.13
2018-12-24T10:38:18.313Z,9.43
2018-12-24T10:41:06.846Z,9.85
2018-12-24T10:43:36.231Z,10.09
2018-12-24T10:46:05.590Z,9.88
2018-12-24T10:48:34.977Z,9.91
2018-12-24T10:51:04.405Z,10.09
2018-12-24T10:53:33.783Z,10.10
2018-12-24T10:56:03.137Z,10.49
2018-12-24T10:58:32.588Z,10.93
2018-12-24T11:01:01.997Z,11.80
2018-12-24T11:03:31.402Z,12.25
2018-12-24T11:06:00.767Z,12.58
2018-12-24T11:08:30.142Z,13.02
2018-12-24T11:10:59.546Z,13.49
2018-12-24T11:13:28.951Z,13.49
2018-12-24T11:15:58.319Z,13.22
2018-12-24T11:18:27.702Z,13.40
2018-12-24T11:20:57.124Z,13.90
2018-12-24T11:23:26.569Z,14.14
2018-12-24T11:25:56.009Z,13.86
2018-12-24T11:28:25.347Z,13.86
2018-12-24T11:30:54.835Z,13.81
2018-12-24T11:33:24.181Z,14.21
2018-12-24T11:35:53.544Z,14.51
2018-12-24T11:38:23.004Z,14.69
2018-12-24T11:40:52.460Z,14.71
2018-12-24T11:43:21.804Z,14.53
2018-12-24T11:45:51.199Z,14.57
2018-12-24T11:48:20.593Z,14.32
2018-12-24T11:50:50.007Z,13.95
2018-12-24T11:53:19.402Z,14.00
2018-12-24T11:55:48.833Z,14.02
2018-12-24T11:58:18.181Z,13.54
2018-12-24T12:00:47.546Z,13.49
2018-12-24T12:03:16.932Z,13.65
2018-12-24T12:05:46.282Z,13.64
2018-12-24T12:08:15.632Z,13.44
2018-12-24T12:10:45.052Z,13.60
2018-12-24T12:13:14.425Z,13.67
2018-12-24T12:15:43.774Z,13.47
2018-12-24T12:18:13.137Z,13.47
2018-12-24T12:20:42.499Z,13.34
2018-12-24T12:23:11.922Z,13.29
2018-12-24T12:25:41.347Z,13.36
2018-12-24T12:28:10.787Z,13.45
2018-12-24T12:30:40.201Z,13.25
2018-12-24T12:33:09.558Z,13.20
2018-12-24T12:35:38.906Z,13.12
2018-12-24T12:38:08.265Z,13.15
2018-12-24T12:40:37.618Z,13.20
2018-12-24T12:43:07.419Z,13.25
2018-12-24T12:45:36.766Z,13.35
2018-12-24T12:48:06.124Z,13.56
2018-12-24T12:50:35.585Z,13.87
2018-12-24T12:53:04.997Z,13.57
2018-12-24T12:55:34.355Z,13.68
2018-12-24T12:58:03.709Z,13.31
2018-12-24T13:00:33.129Z,13.31
2018-12-24T13:03:02.528Z,12.91
2018-12-24T13:05:31.924Z,13.03
2018-12-24T13:08:01.314Z,13.13
2018-12-24T13:10:30.699Z,13.03
2018-12-24T13:13:00.157Z,13.05
2018-12-24T13:15:29.486Z,13.03
2018-12-24T13:17:58.855Z,13.09
2018-12-24T13:20:28.273Z,13.09
2018-12-24T13:22:57.615Z,13.16
2018-12-24T13:25:26.973Z,13.11
2018-12-24T13:27:56.398Z,13.18
2018-12-24T13:30:25.770Z,13.02
2018-12-24T13:32:55.121Z,13.00
2018-12-24T13:35:24.507Z,12.93
2018-12-24T13:37:53.868Z,12.98
2018-12-24T13:40:23.247Z,12.72
2018-12-24T13:42:52.655Z,12.56
2018-12-24T13:45:22.051Z,12.48
2018-12-24T13:47:51.411Z,12.59
2018-12-24T13:50:20.847Z,12.57
2018-12-24T13:52:50.275Z,12.61
2018-12-24T13:55:19.666Z,12.71
2018-12-24T13:57:49.035Z,12.74
2018-12-24T14:00:18.467Z,12.52
2018-12-24T14:02:47.818Z,12.45
2018-12-24T14:05:17.220Z,12.46
2018-12-24T14:07:46.598Z,12.37
2018-12-24T14:10:16.280Z,12.45
2018-12-24T14:12:45.727Z,12.55
2018-12-24T14:15:15.079Z,12.53
2018-12-24T14:17:44.443Z,12.46
2018-12-24T14:20:13.810Z,12.44
2018-12-24T14:22:43.219Z,12.36
2018-12-24T14:25:12.588Z,12.37
2018-12-24T14:27:41.947Z,12.42
2018-12-24T14:30:12.442Z,12.34
2018-12-24T14:32:43.536Z,12.34
2018-12-24T14:35:12.930Z,12.17
2018-12-24T14:37:42.264Z,12.05
2018-12-24T14:40:11.599Z,11.91
2018-12-24T14:42:40.992Z,11.84
2018-12-24T14:45:10.351Z,11.80
2018-12-24T14:47:39.727Z,11.83
2018-12-24T14:50:09.574Z,11.74
2018-12-24T14:52:39.015Z,11.69
2018-12-24T14:55:08.436Z,11.78
2018-12-24T14:57:37.829Z,11.83
2018-12-24T15:00:08.250Z,11.98
2018-12-24T15:02:37.644Z,12.00
2018-12-24T15:05:07.047Z,12.04
2018-12-24T15:07:36.458Z,11.91
2018-12-24T15:10:06.122Z,11.95
2018-12-24T15:12:35.507Z,11.97
2018-12-24T15:15:04.999Z,11.96
2018-12-24T15:17:34.477Z,11.98
2018-12-24T15:20:04.015Z,11.97
2018-12-24T15:22:33.478Z,11.96
2018-12-24T15:25:02.896Z,11.97
2018-12-24T15:27:32.284Z,11.93
2018-12-24T15:30:01.665Z,11.97
2018-12-24T15:32:30.973Z,11.64
2018-12-24T15:35:00.373Z,10.39
2018-12-24T15:37:29.811Z,8.93
2018-12-24T15:39:59.133Z,7.83
2018-12-24T15:42:28.472Z,7.00
2018-12-24T15:44:57.880Z,6.64
2018-12-24T15:47:27.284Z,6.43
2018-12-24T15:49:56.663Z,6.34
2018-12-24T15:52:26.012Z,6.28
2018-12-24T15:54:55.381Z,6.21
2018-12-24T15:57:24.723Z,6.17
2018-12-24T15:59:54.042Z,6.12
2018-12-24T16:02:23.588Z,6.11
2018-12-24T16:16:14.336Z,5.88
2018-12-24T16:19:07.026Z,5.68
2018-12-24T16:21:36.348Z,5.68
2018-12-24T16:24:05.677Z,5.62
2018-12-24T16:26:35.074Z,5.55
2018-12-24T16:29:04.447Z,5.52
2018-12-24T16:31:33.827Z,5.48
2018-12-24T16:34:03.199Z,5.42
2018-12-24T16:36:32.573Z,5.37
2018-12-24T16:39:02.016Z,5.30
2018-12-24T16:41:31.374Z,5.19
2018-12-24T16:44:00.766Z,5.15
2018-12-24T17:03:12.601Z,5.07
2018-12-24T17:05:41.993Z,5.08
2018-12-24T17:08:11.314Z,5.07
2018-12-24T17:10:40.671Z,5.06
2018-12-24T17:13:10.068Z,5.05
2018-12-24T17:15:39.391Z,5.01
2018-12-24T17:18:08.768Z,4.96
2018-12-24T17:20:38.125Z,4.94
2018-12-24T17:23:07.448Z,4.90
2018-12-24T17:25:36.819Z,4.85
2018-12-24T17:28:06.241Z,4.81
2018-12-24T17:30:35.617Z,4.76
2018-12-24T17:33:04.976Z,4.75
2018-12-24T17:35:34.281Z,4.74
2018-12-24T17:38:03.586Z,4.76
2018-12-24T17:40:32.948Z,4.74
2018-12-24T17:43:02.300Z,4.76
2018-12-24T17:45:31.564Z,4.73
2018-12-24T17:48:00.953Z,4.72
2018-12-24T17:50:30.351Z,4.71
2018-12-24T17:52:59.720Z,4.66
2018-12-24T17:55:29.064Z,4.62
2018-12-24T17:57:58.409Z,4.56
2018-12-24T18:00:27.758Z,4.52
2018-12-24T18:02:57.275Z,4.48
2018-12-24T18:05:26.613Z,4.44
2018-12-24T18:07:55.995Z,4.47
2018-12-24T18:10:25.977Z,4.41
2018-12-24T18:12:55.323Z,4.43
2018-12-24T18:15:24.674Z,4.39
2018-12-24T18:17:54.061Z,4.42
2018-12-24T18:20:23.398Z,4.40
2018-12-24T18:22:52.744Z,4.42
2018-12-24T18:25:22.089Z,4.41
2018-12-24T18:27:51.431Z,4.41
2018-12-24T18:30:20.707Z,4.43
2018-12-24T18:32:50.014Z,4.38
2018-12-24T18:35:19.320Z,4.33
2018-12-24T18:37:48.655Z,4.29
2018-12-24T18:40:18.021Z,4.27
2018-12-24T18:42:47.390Z,4.24
2018-12-24T18:45:16.730Z,4.21
2018-12-24T18:47:46.144Z,4.19
2018-12-24T18:50:15.486Z,4.22
2018-12-24T18:52:44.908Z,4.20
2018-12-24T18:55:14.320Z,4.20
2018-12-24T18:57:43.718Z,4.19
2018-12-24T19:00:14.078Z,4.18
2018-12-24T19:02:43.402Z,4.15
2018-12-24T19:05:12.711Z,4.12
2018-12-24T19:07:42.128Z,4.11
2018-12-24T19:10:11.733Z,4.05
2018-12-24T19:12:41.076Z,4.02
2018-12-24T19:15:10.435Z,3.99
2018-12-24T19:17:42.838Z,3.97
2018-12-24T19:20:14.908Z,3.91
2018-12-24T19:22:44.232Z,3.86
2018-12-24T19:25:13.598Z,3.81
2018-12-24T19:27:42.976Z,3.77
2018-12-24T19:30:12.311Z,3.73
2018-12-24T19:32:41.757Z,3.74
2018-12-24T19:35:11.181Z,3.76
2018-12-24T19:37:43.555Z,3.73
2018-12-24T19:40:12.935Z,3.78
2018-12-24T19:42:44.331Z,3.70
2018-12-24T19:45:15.166Z,3.69
2018-12-24T19:47:49.808Z,3.70
2018-12-24T19:50:15.677Z,3.64
2018-12-24T19:52:45.029Z,3.63
2018-12-24T19:55:14.457Z,3.59
2018-12-24T19:57:43.886Z,3.56
2018-12-24T20:00:13.272Z,3.51
2018-12-24T20:02:42.710Z,3.46
2018-12-24T20:05:12.121Z,3.31
2018-12-24T20:07:42.606Z,3.40
2018-12-24T20:10:11.995Z,3.38
2018-12-24T20:12:43.505Z,3.35
2018-12-24T20:15:12.814Z,3.33
2018-12-24T20:17:42.191Z,3.31
2018-12-24T20:20:11.592Z,3.29
2018-12-24T20:22:42.520Z,3.30
2018-12-24T20:25:11.949Z,3.26
2018-12-24T20:27:41.392Z,3.26
2018-12-24T20:30:10.727Z,3.26
2018-12-24T20:32:40.039Z,3.29
2018-12-24T20:35:09.384Z,3.24
2018-12-24T20:37:38.749Z,3.23
2018-12-24T20:40:10.394Z,3.26
2018-12-24T20:42:39.752Z,3.24
2018-12-24T20:45:09.094Z,3.19
2018-12-24T20:47:38.501Z,3.17
2018-12-24T20:50:10.764Z,3.07
2018-12-24T20:52:40.095Z,3.02
2018-12-24T20:55:09.446Z,3.00
2018-12-24T20:57:38.894Z,2.97
2018-12-24T21:00:08.595Z,2.99
2018-12-24T21:02:37.933Z,2.98
2018-12-24T21:05:08.112Z,2.94
2018-12-24T21:07:37.468Z,2.92
2018-12-24T21:10:07.063Z,2.92
2018-12-24T21:12:36.412Z,2.89
2018-12-24T21:15:05.807Z,2.91
2018-12-24T21:17:35.205Z,2.91
2018-12-24T21:20:04.829Z,2.92
2018-12-24T21:22:34.264Z,2.95
2018-12-24T21:25:03.629Z,2.94
2018-12-24T21:27:32.993Z,2.92
2018-12-24T21:30:05.720Z,2.94
2018-12-24T21:32:35.042Z,2.99
2018-12-24T21:35:04.387Z,2.96
2018-12-24T21:37:33.763Z,2.92
2018-12-24T21:40:03.098Z,2.89
2018-12-24T21:42:32.429Z,2.90
2018-12-24T21:45:01.778Z,2.89
2018-12-24T21:47:31.141Z,2.89
2018-12-24T21:50:00.539Z,2.86
2018-12-24T21:52:29.944Z,2.84
2018-12-24T21:54:59.338Z,2.83
2018-12-24T21:57:28.703Z,2.84
2018-12-24T21:59:58.062Z,2.81
2018-12-24T22:02:27.393Z,2.78
2018-12-24T22:04:57.768Z,2.78
2018-12-24T22:07:27.124Z,2.78
2018-12-24T22:09:56.451Z,2.81
2018-12-24T22:12:25.834Z,2.81
2018-12-24T22:14:55.330Z,2.80
2018-12-24T22:17:24.706Z,2.81
2018-12-24T22:19:54.010Z,2.78
2018-12-24T22:22:23.372Z,2.78
2018-12-24T22:24:52.711Z,2.77
2018-12-24T22:27:22.010Z,2.77
2018-12-24T22:29:51.390Z,2.78
2018-12-24T22:32:20.764Z,2.78
2018-12-24T22:34:50.110Z,2.79
2018-12-24T22:37:19.495Z,2.78
2018-12-24T22:39:48.883Z,2.78
2018-12-24T22:42:18.273Z,2.77
2018-12-24T22:44:47.648Z,2.78
2018-12-24T22:47:17.029Z,2.79
2018-12-24T22:49:46.413Z,2.76
2018-12-24T22:52:15.788Z,2.73
2018-12-24T22:54:45.306Z,2.77
2018-12-24T22:57:14.592Z,2.78
2018-12-24T22:59:44.103Z,2.72
2018-12-24T23:02:13.456Z,2.65
2018-12-24T23:04:42.788Z,2.61
2018-12-24T23:07:12.196Z,2.59
2018-12-24T23:09:41.566Z,2.54
2018-12-24T23:12:10.925Z,2.42
2018-12-24T23:14:40.234Z,2.39
2018-12-24T23:17:09.628Z,2.33
2018-12-24T23:19:38.961Z,2.28
2018-12-24T23:22:08.301Z,2.33
2018-12-24T23:24:37.679Z,2.34
2018-12-24T23:27:07.204Z,2.28
2018-12-24T23:29:36.664Z,2.27
2018-12-24T23:32:06.008Z,2.30
2018-12-24T23:34:35.354Z,2.32
2018-12-24T23:37:04.772Z,2.34
2018-12-24T23:39:34.260Z,2.37
2018-12-24T23:42:03.629Z,2.35
2018-12-24T23:44:32.983Z,2.19
2018-12-24T23:47:02.352Z,2.06
2018-12-24T23:49:31.677Z,2.03
2018-12-24T23:52:01.020Z,2.01
2018-12-24T23:54:30.400Z,1.96
2018-12-24T23:56:59.715Z,1.90
2018-12-24T23:59:29.052Z,1.92
